Samarkand Airport
UTSS : now visible

Airfield :











YOU CAN JOIN US ON...

 
LOGIN :

Register | Disclaimer

   EN    FR    IT 

 









Legend :    VFR   Marginal VFR   IFR   Intensive IFR   Very Intensive IFR
Visi :
Ceiling :
>= 8 km
>= 3000ft
5 to 8 km
1000 to 3000 ft
1500m to 5 km
500 to 1000 ft
800 to 1500m
200 to 500 ft
< 800m
< 200 ft
Symbols :   Thunderstorms  Fog  Heavy snow  Heavy precipitations  Wind > 20 kt






- Airport Elevation : 2224 ft
- IATA code : SKD


UTSS - Samarkand

CURRENT METAR :
  • 030100Z 12004KT 100V160 9999 NSC 21/10 Q1008 R09/70D NOSIG

EXPIRED METARs :
  • 030030Z 16004KT 120V200 9999 NSC 21/10 Q1008 R09/70D NOSIG
  • 030000Z 15004KT 9999 NSC 21/10 Q1008 R09/70D NOSIG
  • 022330Z 14006KT 6000 NSC 22/09 Q1008 R09/CLRD70 NOSIG
  • 022300Z 15008KT 6000 NSC 23/09 Q1008 R09/70D NOSIG
  • 022230Z 11004KT 6000 NSC 20/10 Q1008 R09/70D NOSIG

TAF TAF UTSS
Valid from the 03 at 00:00 until the 04 at 00:00 UTC


022257Z 0300/0324 12010KT 9999 NSC
TEMPO 0306/0314 30010KT
UTSD FIR / Asia



MET'MAP, your aeronautical weather chart ! - Copyright ORBIFLY December 2007 - Disclaimer

ORBIFLY MET'MAP TEAM :

Programming & Development : Alexandra Zaïnal
Concept & original design : Baudouin d'Aumeries
Assistance for programming : Marc-Olivier Méhu
Technical & hardware support : Manuel Goepfert

Contact : metmap@orbifly.com




SOURCES & CREDITS :

   NOAA       Earth
Advisory